LPPR/OPO METAR and TAF weather

Enter ICAO airport designator
Station Type Date Time Source
LPPR METAR 2019/08/19 02:00 UTC NOAA

LPPR 190200Z 34003KT CAVOK 14/14 Q1018


Station Type Date Time Source
LPPR Decoded METAR 2019/08/19 02:00 UTC NOAA

Station name not available
Aug 18, 2019 - 10:00 PM EDT / 2019.08.19 0200 UTC
Wind: from the NNW (340 degrees) at 3 MPH (3 KT):0
Visibility: greater than 7 mile(s):0
Temperature: 57 F (14 C)
Dew Point: 57 F (14 C)
Relative Humidity: 100%
Pressure (altimeter): 30.06 in. Hg (1018 hPa)
ob: LPPR 190200Z 34003KT CAVOK 14/14 Q1018
cycle: 2

Station Type Date Time Source
LPPR TAF 2019/08/18 18:18 UTC NOAA

TAF LPPR 181700Z 1818/1918 32013KT CAVOK
BECMG 1819/1822 36005KT
BECMG 1910/1912 32010KT
BECMG 1914/1916 32017KT

Example: see airport list